Time;durP1;ratioP1;P1;durP2;ratioP2;P2;SDS_P1;SDS_P2;PMS_P1;PMS_P2;Temp;Humidity;BMP_temperature;BMP_pressure;BME280_temperature;BME280_humidity;BME280_pressure;Samples;Min_cycle;Max_cycle;Signal;HPM_P1;HPM_P2
2022/12/03 00:01:53;;;;;;;81.63;32.23;;;;;;;4.14;83.91;99934.27;1653706;86;21033;-76
2022/12/03 00:04:21;;;;;;;78.90;30.20;;;;;;;4.12;83.82;99930.80;1658267;86;21029;-76
2022/12/03 00:06:49;;;;;;;71.20;27.73;;;;;;;4.11;84.01;99933.77;1653344;86;21072;-77
2022/12/03 00:09:16;;;;;;;78.95;28.62;;;;;;;4.08;83.87;99932.46;1657651;86;21038;-77
2022/12/03 00:11:44;;;;;;;77.22;28.38;;;;;;;4.05;83.72;99936.27;1653863;86;21098;-77
2022/12/03 00:14:11;;;;;;;59.27;27.25;;;;;;;3.97;83.95;99940.00;1656474;86;21031;-76
2022/12/03 00:16:39;;;;;;;62.15;21.68;;;;;;;3.89;84.19;99942.88;1659031;86;21053;-76
2022/12/03 00:19:06;;;;;;;54.42;21.62;;;;;;;3.71;85.17;99942.17;1658089;86;22292;-77
2022/12/03 00:21:34;;;;;;;46.18;20.20;;;;;;;3.61;85.58;99943.30;1655891;86;21587;-76
2022/12/03 00:24:01;;;;;;;50.52;21.33;;;;;;;3.53;85.66;99938.88;1657410;86;21569;-77
2022/12/03 00:26:29;;;;;;;45.95;19.35;;;;;;;3.48;85.66;99935.38;1657262;86;21634;-76
2022/12/03 00:28:57;;;;;;;47.38;19.90;;;;;;;3.46;85.40;99934.49;1656192;86;21498;-76
2022/12/03 00:31:24;;;;;;;44.75;20.17;;;;;;;3.45;85.53;99940.88;1658508;86;22279;-76
2022/12/03 00:33:52;;;;;;;45.67;20.08;;;;;;;3.35;86.22;99933.00;1657262;86;21582;-76
2022/12/03 00:36:19;;;;;;;42.35;18.77;;;;;;;3.33;86.61;99929.97;1654222;86;21047;-77
2022/12/03 00:38:47;;;;;;;42.35;18.95;;;;;;;3.34;86.54;99932.57;1653676;86;21089;-77
2022/12/03 00:41:14;;;;;;;38.85;18.87;;;;;;;3.32;86.36;99942.36;1657625;86;21055;-76
2022/12/03 00:43:42;;;;;;;50.92;19.87;;;;;;;3.34;86.07;99944.53;1652703;86;21694;-77
2022/12/03 00:46:09;;;;;;;36.58;18.02;;;;;;;3.31;86.52;99950.50;1656103;86;21057;-76
2022/12/03 00:48:36;;;;;;;47.80;18.75;;;;;;;3.32;85.79;99943.64;1652440;86;21075;-76
2022/12/03 00:51:04;;;;;;;42.65;19.35;;;;;;;3.22;86.29;99950.75;1658915;86;21037;-76
2022/12/03 00:53:32;;;;;;;44.25;20.00;;;;;;;3.19;86.93;99952.85;1657303;86;21063;-77
2022/12/03 00:56:00;;;;;;;48.30;21.27;;;;;;;3.18;87.02;99953.67;1658074;86;20974;-77
2022/12/03 00:58:28;;;;;;;41.08;18.82;;;;;;;3.21;87.09;99952.45;1657306;86;21094;-76
2022/12/03 01:00:55;;;;;;;44.40;19.07;;;;;;;3.21;86.80;99952.45;1664678;85;21002;-77
2022/12/03 01:03:23;;;;;;;48.68;20.10;;;;;;;3.18;86.90;99952.39;1667857;85;21050;-77
2022/12/03 01:05:50;;;;;;;47.38;19.12;;;;;;;3.21;87.37;99955.03;1667289;85;21033;-77
2022/12/03 01:08:17;;;;;;;47.17;19.85;;;;;;;3.23;87.32;99956.34;1667865;85;21005;-76
2022/12/03 01:10:45;;;;;;;45.90;18.57;;;;;;;3.21;87.11;99955.45;1666425;85;21401;-78
2022/12/03 01:13:13;;;;;;;42.88;20.65;;;;;;;3.17;86.72;99957.09;1668414;85;21025;-76
2022/12/03 01:15:40;;;;;;;40.17;18.15;;;;;;;3.14;87.63;99956.63;1668900;85;21065;-77
2022/12/03 01:18:08;;;;;;;41.63;20.02;;;;;;;3.16;87.20;99957.52;1669126;85;21052;-77
2022/12/03 01:20:35;;;;;;;43.63;19.17;;;;;;;3.19;87.27;99958.84;1669833;85;21037;-76
2022/12/03 01:23:03;;;;;;;51.40;19.77;;;;;;;3.18;87.45;99955.84;1668430;85;21069;-77
2022/12/03 01:25:31;;;;;;;44.35;19.42;;;;;;;3.24;87.70;99958.06;1670123;85;21600;-75
2022/12/03 01:27:59;;;;;;;45.23;19.27;;;;;;;3.24;87.38;99970.48;1670070;85;21590;-76
2022/12/03 01:30:26;;;;;;;53.90;21.27;;;;;;;3.27;87.73;99961.56;1670076;85;21529;-76
2022/12/03 01:32:54;;;;;;;39.55;19.20;;;;;;;3.35;87.85;99965.56;1667550;85;21634;-76
2022/12/03 01:35:21;;;;;;;52.78;22.13;;;;;;;3.42;87.62;99962.67;1666757;85;21058;-76
2022/12/03 01:37:49;;;;;;;48.20;20.02;;;;;;;3.44;87.52;99966.98;1667930;85;21112;-77
2022/12/03 01:40:19;;;;;;;51.65;21.35;;;;;;;3.47;86.77;99961.06;1667462;85;21094;-76
2022/12/03 01:42:46;;;;;;;50.80;21.65;;;;;;;3.37;86.91;99961.31;1667689;85;21002;-76
2022/12/03 01:45:21;;;;;;;52.93;20.48;;;;;;;3.40;87.58;99957.49;1668367;85;21007;-76
2022/12/03 01:47:49;;;;;;;50.55;21.23;;;;;;;3.46;87.66;99961.48;1668624;85;21065;-76
2022/12/03 01:50:29;;;;;;;47.70;21.62;;;;;;;3.49;87.51;99961.95;1671100;85;21052;-77
2022/12/03 01:53:01;;;;;;;48.28;20.97;;;;;;;3.53;87.48;99968.88;1668197;85;21118;-75
2022/12/03 01:55:29;;;;;;;49.88;21.17;;;;;;;3.53;87.02;99962.02;1669543;85;21099;-77
2022/12/03 01:57:59;;;;;;;48.20;21.60;;;;;;;3.48;87.15;99963.66;1667149;85;21049;-76
2022/12/03 02:00:29;;;;;;;48.58;20.35;;;;;;;3.51;87.34;99954.70;1667120;86;20990;-76
2022/12/03 02:03:00;;;;;;;39.92;18.67;;;;;;;3.53;87.13;99955.59;1656483;86;20987;-76
2022/12/03 02:05:31;;;;;;;48.30;19.85;;;;;;;3.48;86.92;99952.09;1660985;86;20967;-76
2022/12/03 02:07:59;;;;;;;45.63;19.52;;;;;;;3.46;86.97;99956.34;1656073;86;21091;-76
2022/12/03 02:10:33;;;;;;;44.35;19.25;;;;;;;3.48;87.67;99960.20;1660518;86;21018;-76
2022/12/03 02:13:06;;;;;;;38.60;18.90;;;;;;;3.56;87.75;99962.09;1655442;86;21107;-77
2022/12/03 02:15:36;;;;;;;46.23;19.12;;;;;;;3.62;87.52;99957.47;1657882;86;21047;-76
2022/12/03 02:18:05;;;;;;;47.60;20.62;;;;;;;3.64;87.14;99960.05;1658149;86;21039;-76
2022/12/03 02:20:38;;;;;;;54.00;21.17;;;;;;;3.66;87.08;99963.50;1637091;86;21439;-76
2022/12/03 02:23:14;;;;;;;43.45;19.62;;;;;;;3.66;87.05;99967.36;1642115;86;21064;-76
2022/12/03 02:25:41;;;;;;;41.77;19.52;;;;;;;3.61;86.70;99964.72;1657924;86;21038;-76
2022/12/03 02:28:09;;;;;;;45.58;19.10;;;;;;;3.55;86.54;99968.48;1656088;86;21111;-75
2022/12/03 02:30:37;;;;;;;44.15;18.20;;;;;;;3.46;86.37;99965.73;1657702;86;20990;-76
2022/12/03 02:33:04;;;;;;;48.05;19.30;;;;;;;3.39;87.09;99970.77;1656603;86;21027;-76
2022/12/03 02:35:34;;;;;;;47.75;19.67;;;;;;;3.36;86.73;99968.16;1656941;86;21014;-77
2022/12/03 02:38:21;;;;;;;47.40;18.95;;;;;;;3.36;87.03;99972.02;1656504;86;21071;-75
2022/12/03 02:40:53;;;;;;;49.83;20.95;;;;;;;3.33;87.30;99964.67;1656549;86;21037;-75
2022/12/03 02:43:21;;;;;;;45.98;19.48;;;;;;;3.31;86.94;99967.20;1655257;86;21067;-76
2022/12/03 02:45:52;;;;;;;43.83;18.90;;;;;;;3.26;87.11;99963.67;1657166;86;20951;-76
2022/12/03 02:48:25;;;;;;;45.48;19.15;;;;;;;3.22;86.93;99972.16;1646986;86;21199;-76
2022/12/03 02:50:57;;;;;;;42.23;19.10;;;;;;;3.21;87.12;99973.44;1653954;86;21082;-76
2022/12/03 02:53:41;;;;;;;38.58;17.73;;;;;;;3.16;86.94;99966.91;1657682;86;21176;-76
2022/12/03 02:56:14;;;;;;;42.15;18.75;;;;;;;3.16;87.32;99962.66;1654905;86;21025;-77
2022/12/03 02:58:44;;;;;;;45.38;17.92;;;;;;;3.23;88.06;99970.48;1655901;86;21115;-77
2022/12/03 03:01:14;;;;;;;39.70;17.45;;;;;;;3.31;88.08;99961.20;1660768;85;21148;-76
2022/12/03 03:03:43;;;;;;;46.30;20.27;;;;;;;3.35;87.94;99965.13;1667463;85;21066;-76
2022/12/03 03:06:11;;;;;;;42.10;18.75;;;;;;;3.39;87.88;99966.06;1666764;85;21186;-76
2022/12/03 03:08:39;;;;;;;46.02;20.37;;;;;;;3.46;88.06;99960.59;1670834;85;21013;-76
2022/12/03 03:11:07;;;;;;;48.90;19.67;;;;;;;3.51;87.79;99962.84;1668380;85;21024;-76
2022/12/03 03:13:36;;;;;;;45.33;18.87;;;;;;;3.55;87.76;99966.77;1670703;85;20991;-76
2022/12/03 03:16:06;;;;;;;51.63;20.12;;;;;;;3.62;87.71;99969.44;1670320;85;21002;-77
2022/12/03 03:18:34;;;;;;;39.42;18.15;;;;;;;3.65;87.62;99965.64;1671163;85;20992;-76
2022/12/03 03:21:03;;;;;;;45.90;19.60;;;;;;;3.69;87.57;99966.14;1666335;85;21019;-76
2022/12/03 03:23:30;;;;;;;39.03;16.85;;;;;;;3.75;87.44;99973.95;1669494;85;21481;-77
2022/12/03 03:26:06;;;;;;;42.23;18.00;;;;;;;3.75;86.79;99977.39;1670097;85;21026;-76
2022/12/03 03:28:41;;;;;;;41.73;18.87;;;;;;;3.70;86.90;99975.17;1669334;85;21473;-76
2022/12/03 03:31:12;;;;;;;38.10;18.75;;;;;;;3.67;86.83;99969.97;1669530;85;21004;-77
2022/12/03 03:33:43;;;;;;;39.88;16.82;;;;;;;3.65;86.67;99978.08;1669099;85;21502;-76
2022/12/03 03:36:12;;;;;;;34.70;16.70;;;;;;;3.58;86.59;99974.94;1669424;85;21039;-76
2022/12/03 03:38:41;;;;;;;43.92;18.82;;;;;;;3.45;86.56;99982.88;1668518;85;20986;-77
2022/12/03 03:41:11;;;;;;;43.68;17.45;;;;;;;3.38;86.73;99977.16;1675132;85;20984;-77
2022/12/03 03:43:41;;;;;;;40.78;18.37;;;;;;;3.41;87.17;99982.38;1668045;85;21760;-76
2022/12/03 03:46:10;;;;;;;41.02;18.77;;;;;;;3.45;87.02;99984.59;1669211;85;21018;-76
2022/12/03 03:48:40;;;;;;;39.25;18.10;;;;;;;3.44;87.15;99975.12;1646428;86;21018;-76
2022/12/03 03:51:09;;;;;;;47.90;19.27;;;;;;;3.41;86.84;99977.23;1669200;85;21045;-77
2022/12/03 03:53:42;;;;;;;45.10;19.37;;;;;;;3.37;87.17;99974.16;1666853;85;21979;-76
2022/12/03 03:56:11;;;;;;;44.77;19.77;;;;;;;3.33;87.18;99976.23;1670577;85;21001;-76
2022/12/03 03:58:39;;;;;;;36.38;17.12;;;;;;;3.31;86.85;99972.77;1666415;85;21063;-77
2022/12/03 04:01:10;;;;;;;42.10;19.05;;;;;;;3.26;87.38;99971.80;1670529;85;21077;-76
2022/12/03 04:03:38;;;;;;;43.25;18.45;;;;;;;3.22;87.57;99967.02;1648504;86;20999;-76
2022/12/03 04:06:06;;;;;;;45.30;18.60;;;;;;;3.22;87.68;99977.73;1670235;85;21553;-76
2022/12/03 04:08:34;;;;;;;43.70;19.40;;;;;;;3.22;87.35;99980.30;1666318;85;21023;-76
2022/12/03 04:13:47;;;;;;;44.40;17.52;;;;;;;3.26;87.59;99980.38;1666222;85;21031;-76
2022/12/03 04:16:15;;;;;;;39.88;16.87;;;;;;;3.29;87.75;99978.30;1669609;85;21062;-76
2022/12/03 04:18:42;;;;;;;43.40;17.85;;;;;;;3.28;87.50;99980.02;1671194;85;20962;-76
2022/12/03 04:24:00;;;;;;;35.10;17.00;;;;;;;3.23;87.83;99976.48;1667229;85;21021;-76
2022/12/03 04:29:14;;;;;;;38.20;17.02;;;;;;;3.21;87.71;99982.02;1667054;85;21071;-76
2022/12/03 04:37:00;;;;;;;37.53;16.37;;;;;;;3.09;88.11;99985.63;1669509;85;20958;-76
2022/12/03 04:39:28;;;;;;;30.45;15.53;;;;;;;3.09;87.94;99986.49;1670130;85;21015;-76
2022/12/03 04:41:55;;;;;;;40.52;18.05;;;;;;;3.03;88.73;99991.52;1668757;85;20989;-76
2022/12/03 04:44:32;;;;;;;37.05;15.72;;;;;;;3.03;87.93;99982.95;1670161;85;21049;-76
2022/12/03 04:47:01;;;;;;;40.52;17.07;;;;;;;2.98;88.63;99995.28;1668424;85;20942;-76
2022/12/03 04:49:30;;;;;;;40.65;17.32;;;;;;;2.98;88.85;99991.83;1669739;85;21041;-76
2022/12/03 04:51:58;;;;;;;38.98;16.73;;;;;;;2.95;88.83;99993.92;1667701;85;21787;-76
2022/12/03 04:54:26;;;;;;;35.52;16.57;;;;;;;2.89;89.08;99992.52;1669735;85;21009;-75
2022/12/03 04:56:54;;;;;;;42.78;16.80;;;;;;;2.92;88.60;99991.28;1666362;85;21007;-76
2022/12/03 04:59:21;;;;;;;40.58;17.42;;;;;;;2.87;89.51;99991.63;1666606;85;21512;-76
2022/12/03 05:01:49;;;;;;;39.08;18.82;;;;;;;2.86;89.43;99993.73;1666076;85;21026;-76
2022/12/03 05:04:17;;;;;;;40.52;16.85;;;;;;;2.85;88.91;99997.15;1670766;85;21021;-75
2022/12/03 05:06:45;;;;;;;41.20;16.85;;;;;;;2.81;89.43;99997.92;1665709;85;21203;-76
2022/12/03 05:09:12;;;;;;;44.03;18.92;;;;;;;2.82;89.71;99991.94;1669180;85;21013;-76
2022/12/03 05:11:41;;;;;;;37.03;17.00;;;;;;;2.84;89.97;99988.98;1664878;85;21061;-77
2022/12/03 05:14:09;;;;;;;46.28;18.10;;;;;;;2.84;89.68;99994.55;1667994;85;21541;-76
2022/12/03 05:16:37;;;;;;;36.33;16.25;;;;;;;2.88;89.42;99999.77;1669064;85;21613;-76
2022/12/03 05:19:06;;;;;;;38.60;17.10;;;;;;;2.87;89.51;100005.75;1668526;85;21660;-76
2022/12/03 05:21:34;;;;;;;46.35;19.48;;;;;;;2.91;89.67;100010.11;1667818;85;21058;-76
2022/12/03 05:24:03;;;;;;;40.67;18.35;;;;;;;2.93;89.81;100002.02;1666639;85;21013;-76
2022/12/03 05:26:30;;;;;;;46.95;18.30;;;;;;;2.94;89.40;100013.16;1667925;85;21983;-76
2022/12/03 05:28:58;;;;;;;47.45;22.13;;;;;;;2.95;88.87;100010.63;1666232;85;21076;-76
2022/12/03 05:31:25;;;;;;;50.75;20.70;;;;;;;2.89;89.68;100008.36;1667657;85;21067;-77
2022/12/03 05:33:54;;;;;;;49.50;20.45;;;;;;;2.87;89.79;100008.32;1665372;85;21778;-76
2022/12/03 05:36:24;;;;;;;46.30;19.55;;;;;;;2.87;89.52;100009.61;1668659;85;21561;-76
2022/12/03 05:38:51;;;;;;;45.78;18.02;;;;;;;2.89;89.87;100011.79;1665153;85;21103;-76
2022/12/03 05:44:05;;;;;;;45.75;20.45;;;;;;;2.90;89.36;100012.64;1675241;85;21015;-75
2022/12/03 05:46:33;;;;;;;44.53;21.12;;;;;;;2.87;89.21;100012.59;1669838;85;21077;-75
2022/12/03 05:49:00;;;;;;;46.77;20.55;;;;;;;2.86;89.26;100017.27;1667731;85;21051;-76
2022/12/03 05:51:28;;;;;;;48.28;20.97;;;;;;;2.80;89.42;100019.28;1668959;85;21070;-76
2022/12/03 05:53:57;;;;;;;47.98;21.25;;;;;;;2.81;89.63;100021.03;1667320;85;21090;-76
2022/12/03 05:56:24;;;;;;;52.65;21.17;;;;;;;2.73;90.19;100019.59;1668126;85;21121;-76
2022/12/03 05:58:52;;;;;;;51.20;21.82;;;;;;;2.69;89.85;100020.78;1667314;85;21012;-76
2022/12/03 06:01:19;;;;;;;52.95;21.50;;;;;;;2.68;89.87;100013.90;1665104;85;21118;-76
2022/12/03 06:03:47;;;;;;;58.30;22.70;;;;;;;2.70;90.27;100016.08;1655731;86;21063;-76
2022/12/03 06:06:14;;;;;;;44.53;19.92;;;;;;;2.71;90.05;100018.69;1655996;86;21113;-75
2022/12/03 06:08:41;;;;;;;44.80;20.55;;;;;;;2.69;90.43;100017.79;1647371;86;21099;-76
2022/12/03 06:11:09;;;;;;;47.50;21.15;;;;;;;2.71;90.13;100020.40;1654959;86;21030;-76
2022/12/03 06:13:36;;;;;;;54.58;21.33;;;;;;;2.70;89.52;100022.50;1658354;86;21059;-76
2022/12/03 06:16:04;;;;;;;43.33;20.00;;;;;;;2.68;90.71;100028.02;1654954;86;21022;-76
2022/12/03 06:18:32;;;;;;;40.98;19.17;;;;;;;2.71;90.61;100026.81;1657626;86;21058;-76
2022/12/03 06:20:59;;;;;;;42.23;17.55;;;;;;;2.77;90.67;100037.22;1653052;86;21559;-76
2022/12/03 06:23:27;;;;;;;59.80;26.30;;;;;;;2.82;90.42;100040.73;1655681;86;21561;-76
2022/12/03 06:25:54;;;;;;;82.90;32.85;;;;;;;2.88;90.29;100046.00;1653359;86;22230;-75
2022/12/03 06:28:22;;;;;;;50.10;21.40;;;;;;;2.89;90.30;100049.03;1659300;86;21007;-75
2022/12/03 06:30:49;;;;;;;47.83;19.60;;;;;;;2.92;90.45;100046.51;1653871;86;22011;-76
2022/12/03 06:33:16;;;;;;;51.20;23.12;;;;;;;2.97;89.87;100049.20;1657459;86;22305;-75
2022/12/03 06:35:44;;;;;;;54.63;21.37;;;;;;;3.01;90.11;100048.84;1657568;86;21090;-76
2022/12/03 06:38:12;;;;;;;54.58;21.93;;;;;;;3.04;89.98;100048.89;1655882;86;21049;-77
2022/12/03 06:40:39;;;;;;;52.62;23.05;;;;;;;3.06;90.06;100050.65;1655102;86;21016;-75
2022/12/03 06:43:06;;;;;;;54.50;23.20;;;;;;;3.09;90.09;100049.44;1659767;86;21058;-76
2022/12/03 06:45:34;;;;;;;56.25;22.02;;;;;;;3.08;89.91;100050.69;1660083;86;21070;-76
2022/12/03 06:48:01;;;;;;;53.00;22.45;;;;;;;3.11;90.08;100058.47;1659999;86;21049;-75
2022/12/03 06:50:29;;;;;;;51.13;23.92;;;;;;;3.12;90.04;100062.76;1659838;86;21038;-76
2022/12/03 06:52:56;;;;;;;51.75;22.90;;;;;;;3.12;90.25;100059.80;1654827;86;21018;-76
2022/12/03 06:55:24;;;;;;;56.75;22.82;;;;;;;3.16;90.39;100056.84;1659368;86;21006;-76
2022/12/03 06:57:51;;;;;;;51.08;22.22;;;;;;;3.22;90.86;100063.81;1654728;86;21015;-76
2022/12/03 07:00:20;;;;;;;56.40;22.75;;;;;;;3.25;90.12;100063.89;1657381;86;21329;-76
2022/12/03 07:02:47;;;;;;;59.98;22.65;;;;;;;3.25;90.17;100063.47;1653775;86;21056;-76
2022/12/03 07:05:15;;;;;;;56.53;22.65;;;;;;;3.30;90.14;100063.16;1658332;86;21055;-76
2022/12/03 07:07:42;;;;;;;50.83;22.25;;;;;;;3.36;90.76;100063.66;1656099;86;21144;-77
2022/12/03 07:10:11;;;;;;;57.40;24.60;;;;;;;3.45;90.56;100063.86;1657470;86;21066;-76
2022/12/03 07:12:38;;;;;;;57.10;23.77;;;;;;;3.52;90.91;100058.00;1656114;86;21087;-76
2022/12/03 07:15:07;;;;;;;58.87;26.50;;;;;;;3.56;90.94;100056.33;1653925;86;21059;-77
2022/12/03 07:17:34;;;;;;;51.65;22.48;;;;;;;3.63;90.94;100062.05;1658903;86;21102;-76
2022/12/03 07:20:03;;;;;;;51.35;23.07;;;;;;;3.72;91.30;100063.91;1656205;86;21038;-76
2022/12/03 07:22:33;;;;;;;52.73;21.77;;;;;;;3.83;91.06;100061.55;1657818;86;21000;-76
2022/12/03 07:25:01;;;;;;;45.88;21.50;;;;;;;3.88;90.95;100062.08;1656604;86;21017;-77
2022/12/03 07:27:28;;;;;;;55.23;22.65;;;;;;;3.93;90.83;100060.86;1658036;86;21002;-77
2022/12/03 07:29:55;;;;;;;59.30;22.37;;;;;;;3.96;90.58;100060.50;1655389;86;21014;-77
2022/12/03 07:32:23;;;;;;;69.62;26.20;;;;;;;3.99;90.49;100063.53;1658054;86;21046;-77
2022/12/03 07:34:50;;;;;;;64.25;23.75;;;;;;;4.04;90.41;100059.34;1654472;86;20991;-77
2022/12/03 07:37:18;;;;;;;57.27;24.37;;;;;;;4.06;90.58;100054.20;1661110;86;21098;-77
2022/12/03 07:39:45;;;;;;;64.42;23.27;;;;;;;4.11;90.28;100058.59;1653885;86;21054;-76
2022/12/03 07:42:13;;;;;;;60.05;22.62;;;;;;;4.11;90.25;100048.72;1660399;86;20958;-76
2022/12/03 07:44:40;;;;;;;62.53;23.92;;;;;;;4.09;90.20;100052.98;1654402;86;21071;-76
2022/12/03 07:47:07;;;;;;;52.80;22.50;;;;;;;4.11;90.38;100058.59;1658743;86;21023;-77
2022/12/03 07:49:35;;;;;;;51.68;21.82;;;;;;;4.18;90.14;100057.00;1655090;86;21035;-77
2022/12/03 07:52:02;;;;;;;52.25;20.97;;;;;;;4.22;90.11;100055.31;1660371;86;21444;-77
2022/12/03 07:54:30;;;;;;;50.92;20.37;;;;;;;4.23;89.92;100063.50;1657234;86;21098;-77
2022/12/03 07:56:58;;;;;;;56.53;20.05;;;;;;;4.29;89.75;100058.45;1656204;86;20986;-76
2022/12/03 07:59:25;;;;;;;62.65;21.87;;;;;;;4.30;89.65;100063.63;1660353;86;21078;-76
2022/12/03 08:01:52;;;;;;;46.83;20.23;;;;;;;4.23;89.63;100057.06;1658022;86;21041;-77
2022/12/03 08:04:20;;;;;;;49.90;21.05;;;;;;;4.26;89.86;100065.71;1669989;85;21034;-77
2022/12/03 08:06:48;;;;;;;47.70;20.05;;;;;;;4.30;89.83;100070.06;1666572;85;21212;-77
2022/12/03 08:09:16;;;;;;;41.25;17.95;;;;;;;4.30;89.62;100064.05;1669443;85;21077;-77
2022/12/03 08:11:47;;;;;;;49.55;20.70;;;;;;;4.37;89.75;100060.72;1666244;85;21127;-76
2022/12/03 08:14:18;;;;;;;44.05;18.90;;;;;;;4.44;89.68;100065.13;1667244;85;21478;-77
2022/12/03 08:16:46;;;;;;;51.55;19.82;;;;;;;4.46;89.68;100066.02;1670297;85;21045;-77
2022/12/03 08:19:16;;;;;;;42.73;18.87;;;;;;;4.51;89.58;100066.94;1670453;85;21066;-77
2022/12/03 08:21:44;;;;;;;45.35;18.62;;;;;;;4.58;89.63;100071.34;1668517;85;21475;-77
2022/12/03 08:24:18;;;;;;;53.65;20.85;;;;;;;4.58;89.40;100068.77;1669706;85;21862;-77
2022/12/03 08:26:47;;;;;;;52.33;20.27;;;;;;;4.55;89.38;100072.58;1656211;85;21015;-77
2022/12/03 08:29:18;;;;;;;50.25;20.27;;;;;;;4.61;89.18;100065.80;1669454;85;21106;-76
2022/12/03 08:31:53;;;;;;;48.40;20.55;;;;;;;4.65;89.18;100071.44;1668540;85;21579;-77
2022/12/03 08:34:25;;;;;;;52.95;21.90;;;;;;;4.62;89.11;100072.69;1669335;85;21000;-76
2022/12/03 08:36:59;;;;;;;48.13;20.75;;;;;;;4.67;89.34;100075.75;1668480;85;21130;-77
2022/12/03 08:39:34;;;;;;;48.52;19.90;;;;;;;4.72;89.25;100073.27;1669043;85;21011;-77
2022/12/03 08:45:38;;;;;;;50.08;20.62;;;;;;;4.82;88.41;100064.81;1669311;85;21086;-76
2022/12/03 08:48:31;;;;;;;50.40;20.23;;;;;;;4.86;88.76;100071.74;1663804;85;21094;-78
2022/12/03 08:51:07;;;;;;;58.30;21.62;;;;;;;4.93;88.80;100064.95;1670282;85;21028;-75
2022/12/03 08:53:48;;;;;;;49.90;20.45;;;;;;;4.93;88.79;100059.80;1665757;85;21010;-76
2022/12/03 08:56:28;;;;;;;44.40;19.42;;;;;;;4.96;88.78;100058.56;1668455;85;21041;-76
2022/12/03 08:59:03;;;;;;;47.08;19.90;;;;;;;5.02;88.97;100057.34;1665441;85;21063;-77
2022/12/03 09:01:44;;;;;;;51.95;20.40;;;;;;;5.15;89.03;100057.06;1668147;85;21608;-76
2022/12/03 09:04:44;;;;;;;44.58;18.85;;;;;;;5.14;88.41;100057.92;1665222;85;21134;-76
2022/12/03 09:07:12;;;;;;;49.60;18.62;;;;;;;5.14;88.45;100056.64;1664362;85;21681;-76
2022/12/03 09:09:39;;;;;;;45.63;18.92;;;;;;;5.14;88.24;100051.05;1667170;85;21618;-77
2022/12/03 09:12:07;;;;;;;42.88;18.90;;;;;;;5.16;88.34;100056.23;1669786;85;21057;-77
2022/12/03 09:14:34;;;;;;;46.05;18.05;;;;;;;5.20;88.46;100055.85;1667114;85;21067;-77
2022/12/03 09:17:02;;;;;;;53.25;19.80;;;;;;;5.30;88.21;100049.95;1669691;85;21037;-76
2022/12/03 09:19:32;;;;;;;46.13;18.90;;;;;;;5.26;88.31;100050.77;1665145;85;21023;-76
2022/12/03 09:22:00;;;;;;;49.85;20.17;;;;;;;5.36;88.33;100049.59;1668599;85;21037;-76
2022/12/03 09:24:28;;;;;;;58.40;20.92;;;;;;;5.40;87.73;100050.92;1668447;85;21078;-77
2022/12/03 09:26:55;;;;;;;50.88;19.82;;;;;;;5.35;87.45;100052.14;1668128;85;21033;-76
2022/12/03 09:29:23;;;;;;;51.60;19.75;;;;;;;5.36;87.71;100056.03;1668567;85;21051;-76
2022/12/03 09:31:50;;;;;;;60.15;20.95;;;;;;;5.33;87.57;100051.27;1667583;85;21581;-76
2022/12/03 09:34:17;;;;;;;46.25;18.87;;;;;;;5.36;87.92;100044.43;1665898;85;21589;-76
2022/12/03 09:36:45;;;;;;;44.98;18.00;;;;;;;5.29;87.93;100051.67;1666822;85;20997;-76
2022/12/03 09:39:12;;;;;;;58.02;22.35;;;;;;;5.42;87.78;100050.52;1668539;85;21593;-76
2022/12/03 09:41:40;;;;;;;52.93;20.68;;;;;;;5.28;87.64;100046.06;1666083;85;21047;-75
2022/12/03 09:44:09;;;;;;;52.43;20.88;;;;;;;5.20;87.94;100045.11;1668417;85;22259;-76
2022/12/03 09:46:39;;;;;;;54.20;20.23;;;;;;;5.22;87.85;100050.29;1668753;85;21050;-77
2022/12/03 09:49:09;;;;;;;44.08;19.23;;;;;;;5.19;88.10;100044.66;1671038;85;21065;-77
2022/12/03 09:51:37;;;;;;;53.40;17.85;;;;;;;5.21;88.11;100048.11;1666434;85;21011;-77
2022/12/03 09:54:06;;;;;;;52.10;18.50;;;;;;;5.25;88.17;100029.69;1671266;85;21482;-77
2022/12/03 09:56:37;;;;;;;46.83;18.05;;;;;;;5.23;88.12;100033.95;1666780;85;21007;-77
2022/12/03 09:59:15;;;;;;;50.75;18.15;;;;;;;5.32;88.38;100030.20;1670334;85;21005;-77
2022/12/03 10:01:43;;;;;;;49.00;18.87;;;;;;;5.37;88.25;100033.28;1665902;85;21074;-76
2022/12/03 10:04:10;;;;;;;52.75;20.52;;;;;;;5.36;87.92;100030.25;1657583;86;21026;-77
2022/12/03 10:06:39;;;;;;;45.17;17.77;;;;;;;5.27;87.92;100032.74;1653498;86;21063;-76
2022/12/03 10:09:09;;;;;;;48.95;17.87;;;;;;;5.29;87.99;100036.20;1657508;86;21010;-76
2022/12/03 10:11:36;;;;;;;44.85;18.50;;;;;;;5.31;88.25;100029.75;1654042;86;21067;-77
2022/12/03 10:14:05;;;;;;;56.13;19.27;;;;;;;5.36;87.85;100026.38;1656077;86;21058;-77
2022/12/03 10:16:35;;;;;;;49.48;18.70;;;;;;;5.35;88.07;100034.09;1659937;86;21614;-76
2022/12/03 10:19:03;;;;;;;48.20;19.73;;;;;;;5.32;87.92;100030.20;1655451;86;21035;-77
2022/12/03 10:21:37;;;;;;;52.38;20.92;;;;;;;5.38;88.32;100032.42;1620286;87;21474;-77
2022/12/03 10:24:30;;;;;;;47.08;19.00;;;;;;;5.46;87.78;100035.52;1656171;86;21020;-77
2022/12/03 10:27:19;;;;;;;54.80;19.90;;;;;;;5.51;87.63;100033.83;1647210;86;21027;-77
2022/12/03 10:29:57;;;;;;;53.38;19.52;;;;;;;5.52;88.11;100031.28;1656961;86;20939;-77
2022/12/03 10:32:49;;;;;;;44.08;19.15;;;;;;;5.63;88.15;100027.53;1660724;86;21022;-77
2022/12/03 10:35:21;;;;;;;54.23;19.62;;;;;;;5.71;87.68;100022.02;1658161;86;20982;-77
2022/12/03 10:38:16;;;;;;;47.67;20.12;;;;;;;5.63;87.54;100024.06;1659206;86;21059;-77
2022/12/03 10:40:44;;;;;;;;;;;;;;;5.66;87.30;100028.84;1636666;86;21002;-77
2022/12/03 10:43:21;;;;;;;42.62;17.73;;;;;;;5.60;86.99;100022.77;1659593;86;20199;-77
2022/12/03 10:45:53;;;;;;;46.60;19.23;;;;;;;5.67;87.35;100013.81;1659552;86;22121;-76
2022/12/03 10:48:30;;;;;;;51.63;20.60;;;;;;;5.74;87.20;100018.16;1659237;86;20988;-77
2022/12/03 10:51:19;;;;;;;45.05;18.52;;;;;;;5.80;87.71;100010.05;1656203;86;20986;-77
2022/12/03 10:53:48;;;;;;;49.08;18.55;;;;;;;5.92;87.53;100007.56;1658066;86;21027;-76
2022/12/03 10:56:24;;;;;;;45.08;18.62;;;;;;;5.98;86.66;100011.09;1657648;86;21006;-76
2022/12/03 10:58:52;;;;;;;47.80;18.30;;;;;;;5.95;86.94;100008.50;1655543;86;21016;-77
2022/12/03 11:01:25;;;;;;;43.40;18.27;;;;;;;5.97;86.61;100005.94;1657398;86;20951;-77
2022/12/03 11:03:58;;;;;;;46.83;17.70;;;;;;;6.06;86.27;100010.30;1650749;86;21023;-77
2022/12/03 11:06:25;;;;;;;46.90;18.82;;;;;;;6.16;86.58;100006.92;1644462;87;21086;-77
2022/12/03 11:08:55;;;;;;;44.58;17.95;;;;;;;6.18;86.23;100007.80;1649253;87;21024;-77
2022/12/03 11:11:28;;;;;;;47.88;18.10;;;;;;;6.18;85.61;100002.64;1643944;86;20943;-77
2022/12/03 11:14:02;;;;;;;50.50;19.67;;;;;;;6.23;86.34;99994.91;1648523;87;21015;-77
2022/12/03 11:16:44;;;;;;;47.35;17.62;;;;;;;6.36;86.44;100000.61;1647670;86;21507;-76
2022/12/03 11:19:18;;;;;;;46.28;19.67;;;;;;;6.45;85.44;99995.51;1651626;87;21012;-77
2022/12/03 11:22:09;;;;;;;46.05;17.42;;;;;;;6.57;85.67;99994.72;1630861;87;20975;-77
2022/12/03 11:24:39;;;;;;;46.35;19.15;;;;;;;6.73;85.82;99987.47;1650041;87;21020;-77
2022/12/03 11:27:12;;;;;;;41.48;17.65;;;;;;;6.83;84.69;100000.02;1643356;86;20970;-77
2022/12/03 11:29:56;;;;;;;39.53;17.70;;;;;;;6.84;85.03;99993.97;1646523;87;20995;-77
2022/12/03 11:32:47;;;;;;;46.83;18.20;;;;;;;6.91;84.20;99990.57;1643019;86;20958;-77
2022/12/03 11:35:28;;;;;;;45.03;18.70;;;;;;;7.02;84.42;99979.40;1647125;87;20988;-78
2022/12/03 11:38:01;;;;;;;43.92;17.82;;;;;;;7.05;83.78;99978.13;1644885;87;20982;-77
2022/12/03 11:40:29;;;;;;;48.38;19.48;;;;;;;7.05;83.17;99984.16;1637886;87;21007;-76
2022/12/03 11:42:56;;;;;;;50.52;19.77;;;;;;;7.15;83.82;99980.73;1650419;87;21082;-77
2022/12/03 11:45:36;;;;;;;43.02;18.65;;;;;;;7.29;83.05;99982.07;1652874;87;21043;-77
2022/12/03 11:48:15;;;;;;;46.73;19.20;;;;;;;7.40;83.19;99981.22;1642983;87;22465;-77
2022/12/03 11:50:52;;;;;;;45.73;17.45;;;;;;;7.48;82.58;99982.98;1651678;87;20998;-77
2022/12/03 11:53:26;;;;;;;40.73;18.90;;;;;;;7.52;82.67;99982.12;1642852;86;20998;-78
2022/12/03 11:56:09;;;;;;;41.85;17.75;;;;;;;7.55;81.46;99982.55;1646747;87;21519;-76